Reed, United Kingdom
Current Conditions -  °F | °C
As of 4:50 AM on Sunday 23 Nov 2014 (Local Time) from EGSS Reporting Station
Light Rain Light Rain  
Wind Chill: 52°   Ceiling: 600
Heat Index: 52°   Visibility: 3mi
Dew Point: 52°   Wind: 7mph
Humidity: 100%   Direction: 360°N
Pressure: 29.94"   Gusts: NA
Location:  52.01°N, 0.02°W
Report Text: EGSS 230450Z 36006KT 5000 -RADZ SCT002 BKN006 11/11 Q1014
Loading
Personal Weather Stations






























Interactive Weather Map New forecast layout! Learn more

10-Day Weather Forecast

Advertisements
Track Severe Weather on mobile